Time;durP1;ratioP1;P1;durP2;ratioP2;P2;SDS_P1;SDS_P2;PMS_P1;PMS_P2;Temp;Humidity;BMP_temperature;BMP_pressure;BME280_temperature;BME280_humidity;BME280_pressure;Samples;Min_cycle;Max_cycle;Signal;HPM_P1;HPM_P2
2022/06/28 13:35:58;;;;;;;1.55;1.55;;;;;;;;;;10668577;27;20449;-68
2022/06/28 13:41:02;;;;;;;7.80;7.50;;;;;;;;;;10638974;28;20234;-68
2022/06/28 13:46:05;;;;;;;7.88;7.57;;;;;;;;;;10628913;28;20056;-68
2022/06/28 13:51:09;;;;;;;10.50;10.05;;;;;;;;;;10635747;28;20088;-68
2022/06/28 13:56:11;;;;;;;8.07;7.78;;;;;;;;;;10646279;27;20043;-69
2022/06/28 14:01:18;;;;;;;7.93;7.63;;;;;;;;;;10664980;27;20059;-70
2022/06/28 14:06:23;;;;;;;7.47;7.18;;;;;;;;;;10664653;27;20071;-68
2022/06/28 14:11:25;;;;;;;6.80;6.60;;;;;;;;;;10633392;27;20071;-69
2022/06/28 14:16:27;;;;;;;7.40;7.10;;;;;;;;;;10657249;27;20246;-68
2022/06/28 14:21:31;;;;;;;7.10;6.80;;;;;;;;;;10618938;27;20039;-69
2022/06/28 14:26:34;;;;;;;6.70;6.50;;;;;;;;;;10619760;27;20052;-69
2022/06/28 14:31:37;;;;;;;0.00;0.00;;;;;;;;;;10620746;27;20273;-69
2022/06/28 14:36:41;;;;;;;0.00;0.00;;;;;;;;;;10659950;27;20039;-68
2022/06/28 14:41:43;;;;;;;6.63;6.43;;;;;;;;;;10642193;27;20346;-68
2022/06/28 14:46:45;;;;;;;1.15;1.15;;;;;;;;;;10617997;27;20069;-68
2022/06/28 14:51:49;;;;;;;6.05;5.85;;;;;;;;;;10627244;27;20039;-69
2022/06/28 14:56:52;;;;;;;11.95;11.35;;;;;;;;;;10619574;27;20078;-72
2022/06/28 15:01:54;;;;;;;10.15;9.75;;;;;;;;;;10607968;27;20239;-70
2022/06/28 15:06:57;;;;;;;8.20;7.90;;;;;;;;;;10609151;27;20349;-72
2022/06/28 15:11:59;;;;;;;7.95;7.65;;;;;;;;;;10612183;27;20047;-71
2022/06/28 15:17:02;;;;;;;7.35;7.05;;;;;;;;;;10610123;27;20040;-70
2022/06/28 15:32:46;;;;;;;5.38;5.07;;;;;;;;;;10625286;27;20281;-70
2022/06/28 15:37:49;;;;;;;7.43;7.13;;;;;;;;;;10605161;27;20055;-71
2022/06/28 15:42:51;;;;;;;7.13;6.82;;;;;;;;;;10630174;27;20227;-73
2022/06/28 15:47:53;;;;;;;0.00;0.00;;;;;;;;;;10617568;27;20040;-70
2022/06/28 15:52:57;;;;;;;0.00;0.00;;;;;;;;;;10586760;27;20059;-69
2022/06/28 15:58:01;;;;;;;5.50;5.30;;;;;;;;;;10596536;28;20047;-70
2022/06/28 16:03:04;;;;;;;0.15;0.15;;;;;;;;;;10642674;27;20042;-71
2022/06/28 16:08:08;;;;;;;0.00;0.00;;;;;;;;;;10592060;28;20040;-71
2022/06/28 16:13:11;;;;;;;0.00;0.00;;;;;;;;;;10576113;27;20043;-71
2022/06/28 16:18:13;;;;;;;0.00;0.00;;;;;;;;;;10607099;27;20500;-70
2022/06/28 16:23:17;;;;;;;0.93;0.93;;;;;;;;;;10614026;27;20044;-69
2022/06/28 16:28:19;;;;;;;0.00;0.00;;;;;;;;;;10621136;27;20055;-69
2022/06/28 16:33:22;;;;;;;0.00;0.00;;;;;;;;;;10645091;27;20154;-69
2022/06/28 16:38:25;;;;;;;0.00;0.00;;;;;;;;;;10628478;27;20384;-69
2022/06/28 16:43:28;;;;;;;0.00;0.00;;;;;;;;;;10590809;27;20052;-68
2022/06/28 16:48:30;;;;;;;7.93;7.63;;;;;;;;;;10601165;28;20040;-70
2022/06/28 16:53:34;;;;;;;8.07;7.77;;;;;;;;;;10589329;28;20112;-70
2022/06/28 16:58:36;;;;;;;7.90;7.60;;;;;;;;;;10633244;27;20310;-69
2022/06/28 17:03:38;;;;;;;7.90;7.60;;;;;;;;;;10659014;27;20039;-70
2022/06/28 17:08:42;;;;;;;7.50;7.20;;;;;;;;;;10623228;27;20310;-69
2022/06/28 17:13:44;;;;;;;6.70;6.50;;;;;;;;;;10600292;28;20299;-71
2022/06/28 17:18:46;;;;;;;6.10;5.90;;;;;;;;;;10589665;28;20051;-69
2022/06/28 17:23:50;;;;;;;0.00;0.00;;;;;;;;;;10626902;27;20043;-71
2022/06/28 17:28:53;;;;;;;2.75;2.65;;;;;;;;;;10641940;27;20100;-68
2022/06/28 17:33:56;;;;;;;8.93;8.55;;;;;;;;;;10584467;28;20071;-68
2022/06/28 17:38:59;;;;;;;0.00;0.00;;;;;;;;;;10589734;27;20251;-70
2022/06/28 17:44:01;;;;;;;0.40;0.40;;;;;;;;;;10577553;28;20051;-71
2022/06/28 17:49:04;;;;;;;0.00;0.00;;;;;;;;;;10595024;28;20055;-70
2022/06/28 17:54:08;;;;;;;0.00;0.00;;;;;;;;;;10559014;28;20339;-70
2022/06/28 17:59:10;;;;;;;0.00;0.00;;;;;;;;;;10573958;28;20090;-71
2022/06/28 18:04:15;;;;;;;0.00;0.00;;;;;;;;;;10596581;28;20226;-71
2022/06/28 18:09:19;;;;;;;0.00;0.00;;;;;;;;;;10571097;28;20059;-71
2022/06/28 18:14:21;;;;;;;0.00;0.00;;;;;;;;;;10558812;28;20374;-70
2022/06/28 18:19:23;;;;;;;0.15;0.10;;;;;;;;;;10573741;28;20040;-69
2022/06/28 18:24:27;;;;;;;0.00;0.00;;;;;;;;;;10579743;28;20048;-69
2022/06/28 18:29:28;;;;;;;;;;;;;;;;;;10568692;28;20062;-69
2022/06/28 18:34:35;;;;;;;0.10;0.10;;;;;;;;;;10570261;28;19924;-72
2022/06/28 18:39:38;;;;;;;0.17;0.17;;;;;;;;;;10593356;28;20051;-69
2022/06/28 18:44:40;;;;;;;;;;;;;;;;;;10579400;28;20039;-70
2022/06/28 18:49:42;;;;;;;0.20;0.20;;;;;;;;;;10587394;28;19924;-69
2022/06/28 18:54:46;;;;;;;0.47;0.47;;;;;;;;;;10574654;28;20051;-70
2022/06/28 18:59:48;;;;;;;0.20;0.20;;;;;;;;;;10585940;28;20213;-70
2022/06/28 19:04:50;;;;;;;8.55;8.15;;;;;;;;;;10582202;28;20240;-69
2022/06/28 19:09:54;;;;;;;1.95;1.95;;;;;;;;;;10581012;28;20036;-70
2022/06/28 19:14:57;;;;;;;;;;;;;;;;;;10579024;28;20246;-69
2022/06/28 19:20:00;;;;;;;0.30;0.30;;;;;;;;;;10587115;28;19960;-70
2022/06/28 19:25:04;;;;;;;0.30;0.30;;;;;;;;;;10579196;28;20047;-70
2022/06/28 19:30:07;;;;;;;0.35;0.35;;;;;;;;;;10577283;28;20351;-69
2022/06/28 19:35:13;;;;;;;0.30;0.30;;;;;;;;;;10570451;28;20055;-68
2022/06/28 19:40:17;;;;;;;0.43;0.43;;;;;;;;;;10591347;28;20044;-69
2022/06/28 19:45:19;;;;;;;0.47;0.47;;;;;;;;;;10576317;28;20039;-68
2022/06/28 19:50:21;;;;;;;0.40;0.40;;;;;;;;;;10582219;28;20040;-72
2022/06/28 19:55:25;;;;;;;0.95;0.57;;;;;;;;;;10570045;28;20044;-68
2022/06/28 20:00:27;;;;;;;0.38;0.38;;;;;;;;;;10572691;27;20055;-67
2022/06/28 20:05:36;;;;;;;0.30;0.30;;;;;;;;;;10644073;27;20040;-69
2022/06/28 20:10:41;;;;;;;0.40;0.40;;;;;;;;;;10613551;28;20090;-68
2022/06/28 20:15:43;;;;;;;0.43;0.40;;;;;;;;;;10609394;27;20044;-69
2022/06/28 20:20:46;;;;;;;0.85;0.68;;;;;;;;;;10602477;28;20050;-69
2022/06/28 20:25:49;;;;;;;2.10;1.13;;;;;;;;;;10613457;27;20035;-67
2022/06/28 20:30:51;;;;;;;0.60;0.60;;;;;;;;;;10619455;27;20058;-68
2022/06/28 20:35:54;;;;;;;0.50;0.50;;;;;;;;;;10644647;27;20070;-68
2022/06/28 20:46:17;;;;;;;0.75;0.63;;;;;;;;;;10574831;28;20358;-69
2022/06/28 20:51:19;;;;;;;0.70;0.70;;;;;;;;;;10574200;28;20040;-69
2022/06/28 20:56:23;;;;;;;0.60;0.60;;;;;;;;;;10599643;28;20059;-69
2022/06/28 21:01:25;;;;;;;0.70;0.70;;;;;;;;;;10603194;28;20062;-69
2022/06/28 21:06:28;;;;;;;1.33;0.70;;;;;;;;;;10622375;27;20235;-69
2022/06/28 21:11:34;;;;;;;0.60;0.60;;;;;;;;;;10576373;28;20047;-68
2022/06/28 21:16:36;;;;;;;0.63;0.63;;;;;;;;;;10614411;27;20043;-69
2022/06/28 21:21:38;;;;;;;0.52;0.52;;;;;;;;;;10601939;27;20047;-68
2022/06/28 21:26:43;;;;;;;0.60;0.60;;;;;;;;;;10605084;27;20051;-68
2022/06/28 21:31:45;;;;;;;0.60;0.60;;;;;;;;;;10616269;27;20315;-68
2022/06/28 21:36:48;;;;;;;0.70;0.70;;;;;;;;;;10587785;27;20040;-68
2022/06/28 21:41:51;;;;;;;1.17;1.08;;;;;;;;;;10588531;28;20070;-68
2022/06/28 21:46:53;;;;;;;1.60;1.08;;;;;;;;;;10614858;27;20330;-68
2022/06/28 21:51:55;;;;;;;0.70;0.70;;;;;;;;;;10615331;27;20047;-68
2022/06/28 21:56:59;;;;;;;1.60;1.20;;;;;;;;;;10607901;27;20067;-68
2022/06/28 22:02:02;;;;;;;0.90;0.90;;;;;;;;;;10606256;27;20051;-69
2022/06/28 22:07:05;;;;;;;1.10;1.10;;;;;;;;;;10601037;28;20360;-66
2022/06/28 22:12:09;;;;;;;2.42;1.38;;;;;;;;;;10581909;28;20047;-67
2022/06/28 22:17:12;;;;;;;1.58;1.48;;;;;;;;;;10580928;27;20044;-68
2022/06/28 22:22:14;;;;;;;1.63;1.52;;;;;;;;;;10595582;28;20047;-68
2022/06/28 22:27:18;;;;;;;1.77;1.67;;;;;;;;;;10622997;27;20327;-68
2022/06/28 22:32:20;;;;;;;1.60;1.40;;;;;;;;;;10660959;27;20281;-69
2022/06/28 22:37:23;;;;;;;5.63;1.77;;;;;;;;;;10609086;27;20052;-69
2022/06/28 22:42:26;;;;;;;2.45;2.10;;;;;;;;;;10621249;27;20051;-68
2022/06/28 22:47:28;;;;;;;2.00;1.80;;;;;;;;;;10630535;27;20051;-68
2022/06/28 22:52:31;;;;;;;4.55;2.05;;;;;;;;;;10664064;27;20047;-69
2022/06/28 22:57:34;;;;;;;2.42;2.03;;;;;;;;;;10650021;27;20243;-68
2022/06/28 23:02:36;;;;;;;2.17;2.00;;;;;;;;;;10649083;27;20062;-69
2022/06/28 23:07:39;;;;;;;5.72;1.95;;;;;;;;;;10662574;27;20264;-69
2022/06/28 23:12:42;;;;;;;2.00;1.90;;;;;;;;;;10625846;27;20216;-68
2022/06/28 23:17:44;;;;;;;4.30;2.17;;;;;;;;;;10585639;28;20044;-68
2022/06/28 23:22:47;;;;;;;2.70;2.22;;;;;;;;;;10635792;27;20299;-68
2022/06/28 23:27:50;;;;;;;2.22;2.08;;;;;;;;;;10648117;27;20112;-67
2022/06/28 23:32:53;;;;;;;2.10;2.00;;;;;;;;;;10656078;27;20062;-68
2022/06/28 23:37:56;;;;;;;2.00;1.90;;;;;;;;;;10633618;27;20166;-68
2022/06/28 23:43:00;;;;;;;2.53;2.33;;;;;;;;;;10604913;28;20059;-68
2022/06/28 23:48:02;;;;;;;2.23;2.00;;;;;;;;;;10646340;27;20047;-68
2022/06/28 23:53:04;;;;;;;2.50;2.30;;;;;;;;;;10634034;27;20350;-68
2022/06/28 23:58:07;;;;;;;2.53;2.28;;;;;;;;;;10645002;27;20039;-67
